Airfield :
LOGIN :

Register | Disclaimer

   EN    FR    IT 

 










Legend :    VFR   Marginal VFR   IFR   Intensive IFR   Very Intensive IFR
Visi :
Ceiling :
>= 8 km
>= 3000ft
5 to 8 km
1000 to 3000 ft
1500m to 5 km
500 to 1000 ft
800 to 1500m
200 to 500 ft
< 800m
< 200 ft
Symbols :   Thunderstorms  Fog  Heavy snow  Heavy precipitations  Wind > 20 kt
SIGMETs :     Misc.  Thunderstorms  Icing  Turbulence  Mountain Waves  Volcanic Ashes






- Airport Elevation : 75 ft
- IATA code : MRH


EGYM - RAF Marham

CURRENT METAR :
  • 130920Z 26014KT 9999 FEW015 SCT035 05/04 Q0976 NOSIG RMK BLU BLU

EXPIRED METARs :
  • 130850Z 26013KT 9999 FEW010 SCT030 05/04 Q0975 TEMPO SCT020 WHT RMK BLU TEMPO WHT
  • 130820Z 26012KT 9999 SCT030 SCT040 05/04 Q0975 NOSIG RMK BLU BLU
  • 130750Z 27010KT 9999 SCT030 BKN040 05/04 Q0974 NOSIG RMK BLU BLU
  • 130720Z 28010KT 9999 SCT040 05/05 Q0974 TEMPO SCT020 RMK BLU TEMPO WHT
  • 130650Z 28010KT 8000 -RA SCT022 OVC040 06/05 Q0973 WHT

TAF TAF EGYM
Valid from the 13 at 09:00 until the 13 at 18:00 UTC


130733Z 1309/1318 27012KT 9999 SCT025
BECMG 1309/1311 27015G25KT
PROB40
TEMPO 1309/1313 7000 -SHRA SCT014
PROB30
TEMPO 1317/1318 -RA SCT012



MET'MAP, your aeronautical weather chart ! - Copyright ORBIFLY December 2007 - Disclaimer

ORBIFLY MET'MAP TEAM :

Programming & Development : Alexandra Zaïnal
Concept & original design : Baudouin d'Aumeries
Assistance for programming : Marc-Olivier Méhu
Technical & hardware support : Manuel Goepfert

Contact : metmap@orbifly.com




SOURCES & CREDITS :

   NOAA